sensor_id;sensor_type;location;lat;lon;timestamp;P1;durP1;ratioP1;P2;durP2;ratioP2
23262;SDS011;11800;49.830;9.922;2023-03-13T00:01:44;0.10;;;0.10;;
23262;SDS011;11800;49.830;9.922;2023-03-13T00:04:10;0.15;;;0.15;;
23262;SDS011;11800;49.830;9.922;2023-03-13T00:06:37;0.20;;;0.20;;
23262;SDS011;11800;49.830;9.922;2023-03-13T00:09:04;0.20;;;0.20;;
23262;SDS011;11800;49.830;9.922;2023-03-13T00:11:30;0.10;;;0.10;;
23262;SDS011;11800;49.830;9.922;2023-03-13T00:13:57;0.20;;;0.20;;
23262;SDS011;11800;49.830;9.922;2023-03-13T00:16:23;0.20;;;0.20;;
23262;SDS011;11800;49.830;9.922;2023-03-13T00:18:50;0.10;;;0.10;;
23262;SDS011;11800;49.830;9.922;2023-03-13T00:21:17;0.20;;;0.20;;
23262;SDS011;11800;49.830;9.922;2023-03-13T00:23:44;0.10;;;0.10;;
23262;SDS011;11800;49.830;9.922;2023-03-13T00:26:11;0.10;;;0.10;;
23262;SDS011;11800;49.830;9.922;2023-03-13T00:28:38;0.10;;;0.10;;
23262;SDS011;11800;49.830;9.922;2023-03-13T00:31:05;0.10;;;0.10;;
23262;SDS011;11800;49.830;9.922;2023-03-13T00:33:35;0.17;;;0.17;;
23262;SDS011;11800;49.830;9.922;2023-03-13T00:36:02;0.13;;;0.13;;
23262;SDS011;11800;49.830;9.922;2023-03-13T00:38:28;0.10;;;0.10;;
23262;SDS011;11800;49.830;9.922;2023-03-13T00:40:58;0.17;;;0.17;;
23262;SDS011;11800;49.830;9.922;2023-03-13T00:43:24;0.10;;;0.10;;
23262;SDS011;11800;49.830;9.922;2023-03-13T00:45:50;0.10;;;0.10;;
23262;SDS011;11800;49.830;9.922;2023-03-13T00:48:16;0.10;;;0.10;;
23262;SDS011;11800;49.830;9.922;2023-03-13T00:50:42;0.10;;;0.10;;
23262;SDS011;11800;49.830;9.922;2023-03-13T00:53:09;0.20;;;0.20;;
23262;SDS011;11800;49.830;9.922;2023-03-13T00:55:35;0.13;;;0.13;;
23262;SDS011;11800;49.830;9.922;2023-03-13T00:58:01;0.10;;;0.10;;
23262;SDS011;11800;49.830;9.922;2023-03-13T01:00:26;0.10;;;0.10;;
23262;SDS011;11800;49.830;9.922;2023-03-13T01:02:52;0.10;;;0.10;;
23262;SDS011;11800;49.830;9.922;2023-03-13T01:05:18;0.13;;;0.13;;
23262;SDS011;11800;49.830;9.922;2023-03-13T01:07:44;0.10;;;0.10;;
23262;SDS011;11800;49.830;9.922;2023-03-13T01:10:10;0.10;;;0.10;;
23262;SDS011;11800;49.830;9.922;2023-03-13T01:12:36;0.10;;;0.10;;
23262;SDS011;11800;49.830;9.922;2023-03-13T01:15:02;0.10;;;0.10;;
23262;SDS011;11800;49.830;9.922;2023-03-13T01:17:28;0.10;;;0.10;;
23262;SDS011;11800;49.830;9.922;2023-03-13T01:19:55;0.20;;;0.20;;
23262;SDS011;11800;49.830;9.922;2023-03-13T01:22:21;0.10;;;0.10;;
23262;SDS011;11800;49.830;9.922;2023-03-13T01:24:47;0.17;;;0.17;;
23262;SDS011;11800;49.830;9.922;2023-03-13T01:27:16;0.10;;;0.10;;
23262;SDS011;11800;49.830;9.922;2023-03-13T01:29:42;0.10;;;0.10;;
23262;SDS011;11800;49.830;9.922;2023-03-13T01:32:08;0.10;;;0.10;;
23262;SDS011;11800;49.830;9.922;2023-03-13T01:34:34;0.10;;;0.10;;
23262;SDS011;11800;49.830;9.922;2023-03-13T01:37:00;0.20;;;0.20;;
23262;SDS011;11800;49.830;9.922;2023-03-13T01:39:26;0.20;;;0.20;;
23262;SDS011;11800;49.830;9.922;2023-03-13T01:41:52;0.10;;;0.10;;
23262;SDS011;11800;49.830;9.922;2023-03-13T01:44:20;0.10;;;0.10;;
23262;SDS011;11800;49.830;9.922;2023-03-13T01:46:46;0.20;;;0.20;;
23262;SDS011;11800;49.830;9.922;2023-03-13T01:51:46;0.10;;;0.10;;
23262;SDS011;11800;49.830;9.922;2023-03-13T01:54:18;0.10;;;0.10;;
23262;SDS011;11800;49.830;9.922;2023-03-13T01:59:12;0.10;;;0.10;;
23262;SDS011;11800;49.830;9.922;2023-03-13T02:01:39;0.10;;;0.10;;
23262;SDS011;11800;49.830;9.922;2023-03-13T02:04:06;0.13;;;0.13;;
23262;SDS011;11800;49.830;9.922;2023-03-13T02:06:32;0.20;;;0.20;;
23262;SDS011;11800;49.830;9.922;2023-03-13T02:09:02;0.20;;;0.20;;
23262;SDS011;11800;49.830;9.922;2023-03-13T02:11:31;0.10;;;0.10;;
23262;SDS011;11800;49.830;9.922;2023-03-13T02:14:00;0.10;;;0.10;;
23262;SDS011;11800;49.830;9.922;2023-03-13T02:16:28;0.10;;;0.10;;
23262;SDS011;11800;49.830;9.922;2023-03-13T02:18:54;0.10;;;0.10;;
23262;SDS011;11800;49.830;9.922;2023-03-13T02:24:05;0.10;;;0.10;;
23262;SDS011;11800;49.830;9.922;2023-03-13T02:26:33;0.10;;;0.10;;
23262;SDS011;11800;49.830;9.922;2023-03-13T02:28:59;0.10;;;0.10;;
23262;SDS011;11800;49.830;9.922;2023-03-13T02:31:25;0.10;;;0.10;;
23262;SDS011;11800;49.830;9.922;2023-03-13T02:33:51;0.10;;;0.10;;
23262;SDS011;11800;49.830;9.922;2023-03-13T02:36:18;0.20;;;0.20;;
23262;SDS011;11800;49.830;9.922;2023-03-13T02:38:47;0.10;;;0.10;;
23262;SDS011;11800;49.830;9.922;2023-03-13T02:41:15;0.10;;;0.10;;
23262;SDS011;11800;49.830;9.922;2023-03-13T02:43:42;0.10;;;0.10;;
23262;SDS011;11800;49.830;9.922;2023-03-13T02:46:09;0.10;;;0.10;;
23262;SDS011;11800;49.830;9.922;2023-03-13T02:48:39;0.10;;;0.10;;
23262;SDS011;11800;49.830;9.922;2023-03-13T02:51:09;0.10;;;0.10;;
23262;SDS011;11800;49.830;9.922;2023-03-13T02:53:36;0.20;;;0.20;;
23262;SDS011;11800;49.830;9.922;2023-03-13T02:56:02;0.10;;;0.10;;
23262;SDS011;11800;49.830;9.922;2023-03-13T02:58:34;0.20;;;0.20;;
23262;SDS011;11800;49.830;9.922;2023-03-13T03:01:00;0.10;;;0.10;;
23262;SDS011;11800;49.830;9.922;2023-03-13T03:03:31;0.10;;;0.10;;
23262;SDS011;11800;49.830;9.922;2023-03-13T03:05:57;0.10;;;0.10;;
23262;SDS011;11800;49.830;9.922;2023-03-13T03:08:23;0.10;;;0.10;;
23262;SDS011;11800;49.830;9.922;2023-03-13T03:10:49;0.10;;;0.10;;
23262;SDS011;11800;49.830;9.922;2023-03-13T03:13:15;0.10;;;0.10;;
23262;SDS011;11800;49.830;9.922;2023-03-13T03:15:41;0.10;;;0.10;;
23262;SDS011;11800;49.830;9.922;2023-03-13T03:18:07;0.10;;;0.10;;
23262;SDS011;11800;49.830;9.922;2023-03-13T03:20:33;0.10;;;0.10;;
23262;SDS011;11800;49.830;9.922;2023-03-13T03:22:59;0.10;;;0.10;;
23262;SDS011;11800;49.830;9.922;2023-03-13T03:25:25;0.10;;;0.10;;
23262;SDS011;11800;49.830;9.922;2023-03-13T03:27:51;0.20;;;0.20;;
23262;SDS011;11800;49.830;9.922;2023-03-13T03:30:17;0.10;;;0.10;;
23262;SDS011;11800;49.830;9.922;2023-03-13T03:32:43;0.10;;;0.10;;
23262;SDS011;11800;49.830;9.922;2023-03-13T03:35:09;0.15;;;0.15;;
23262;SDS011;11800;49.830;9.922;2023-03-13T03:37:35;0.13;;;0.13;;
23262;SDS011;11800;49.830;9.922;2023-03-13T03:40:01;0.10;;;0.10;;
23262;SDS011;11800;49.830;9.922;2023-03-13T03:42:29;0.10;;;0.10;;
23262;SDS011;11800;49.830;9.922;2023-03-13T03:44:55;0.10;;;0.10;;
23262;SDS011;11800;49.830;9.922;2023-03-13T03:47:21;0.10;;;0.10;;
23262;SDS011;11800;49.830;9.922;2023-03-13T03:49:47;0.10;;;0.10;;
23262;SDS011;11800;49.830;9.922;2023-03-13T03:52:13;0.20;;;0.20;;
23262;SDS011;11800;49.830;9.922;2023-03-13T03:54:39;0.10;;;0.10;;
23262;SDS011;11800;49.830;9.922;2023-03-13T03:57:05;0.10;;;0.10;;
23262;SDS011;11800;49.830;9.922;2023-03-13T03:59:31;0.10;;;0.10;;
23262;SDS011;11800;49.830;9.922;2023-03-13T04:01:57;0.10;;;0.10;;
23262;SDS011;11800;49.830;9.922;2023-03-13T04:04:24;0.10;;;0.10;;
23262;SDS011;11800;49.830;9.922;2023-03-13T04:06:50;0.10;;;0.10;;
23262;SDS011;11800;49.830;9.922;2023-03-13T04:09:16;0.10;;;0.10;;
23262;SDS011;11800;49.830;9.922;2023-03-13T04:11:42;0.10;;;0.10;;
23262;SDS011;11800;49.830;9.922;2023-03-13T04:14:08;0.10;;;0.10;;
23262;SDS011;11800;49.830;9.922;2023-03-13T04:16:34;0.10;;;0.10;;
23262;SDS011;11800;49.830;9.922;2023-03-13T04:19:00;0.10;;;0.10;;
23262;SDS011;11800;49.830;9.922;2023-03-13T04:21:26;0.10;;;0.10;;
23262;SDS011;11800;49.830;9.922;2023-03-13T04:23:52;0.10;;;0.10;;
23262;SDS011;11800;49.830;9.922;2023-03-13T04:26:18;0.10;;;0.10;;
23262;SDS011;11800;49.830;9.922;2023-03-13T04:28:44;0.20;;;0.20;;
23262;SDS011;11800;49.830;9.922;2023-03-13T04:31:10;0.10;;;0.10;;
23262;SDS011;11800;49.830;9.922;2023-03-13T04:33:36;0.10;;;0.10;;
23262;SDS011;11800;49.830;9.922;2023-03-13T04:36:02;0.10;;;0.10;;
23262;SDS011;11800;49.830;9.922;2023-03-13T04:38:28;0.10;;;0.10;;
23262;SDS011;11800;49.830;9.922;2023-03-13T04:40:54;0.10;;;0.10;;
23262;SDS011;11800;49.830;9.922;2023-03-13T04:43:20;0.20;;;0.20;;
23262;SDS011;11800;49.830;9.922;2023-03-13T04:45:46;0.10;;;0.10;;
23262;SDS011;11800;49.830;9.922;2023-03-13T04:48:14;0.20;;;0.20;;
23262;SDS011;11800;49.830;9.922;2023-03-13T04:50:40;0.10;;;0.10;;
23262;SDS011;11800;49.830;9.922;2023-03-13T04:53:06;0.10;;;0.10;;
23262;SDS011;11800;49.830;9.922;2023-03-13T04:55:32;0.10;;;0.10;;
23262;SDS011;11800;49.830;9.922;2023-03-13T04:57:58;0.20;;;0.20;;
23262;SDS011;11800;49.830;9.922;2023-03-13T05:00:23;0.13;;;0.13;;
23262;SDS011;11800;49.830;9.922;2023-03-13T05:02:49;0.20;;;0.20;;
23262;SDS011;11800;49.830;9.922;2023-03-13T05:05:15;0.10;;;0.10;;
23262;SDS011;11800;49.830;9.922;2023-03-13T05:07:41;0.10;;;0.10;;
23262;SDS011;11800;49.830;9.922;2023-03-13T05:10:08;0.20;;;0.20;;
23262;SDS011;11800;49.830;9.922;2023-03-13T05:12:34;0.10;;;0.10;;
23262;SDS011;11800;49.830;9.922;2023-03-13T05:15:00;0.10;;;0.10;;
23262;SDS011;11800;49.830;9.922;2023-03-13T05:17:25;0.10;;;0.10;;
23262;SDS011;11800;49.830;9.922;2023-03-13T05:19:51;0.10;;;0.10;;
23262;SDS011;11800;49.830;9.922;2023-03-13T05:22:17;0.10;;;0.10;;
23262;SDS011;11800;49.830;9.922;2023-03-13T05:24:43;0.10;;;0.10;;
23262;SDS011;11800;49.830;9.922;2023-03-13T05:27:09;0.10;;;0.10;;
23262;SDS011;11800;49.830;9.922;2023-03-13T05:29:35;0.13;;;0.13;;
23262;SDS011;11800;49.830;9.922;2023-03-13T05:32:01;0.10;;;0.10;;
23262;SDS011;11800;49.830;9.922;2023-03-13T05:34:28;0.10;;;0.10;;
23262;SDS011;11800;49.830;9.922;2023-03-13T05:36:53;0.10;;;0.10;;
23262;SDS011;11800;49.830;9.922;2023-03-13T05:39:19;0.10;;;0.10;;
23262;SDS011;11800;49.830;9.922;2023-03-13T05:41:45;0.20;;;0.20;;
23262;SDS011;11800;49.830;9.922;2023-03-13T05:44:11;0.10;;;0.10;;
23262;SDS011;11800;49.830;9.922;2023-03-13T05:46:37;0.10;;;0.10;;
23262;SDS011;11800;49.830;9.922;2023-03-13T05:49:03;0.10;;;0.10;;
23262;SDS011;11800;49.830;9.922;2023-03-13T05:51:29;0.10;;;0.10;;
23262;SDS011;11800;49.830;9.922;2023-03-13T05:53:55;0.10;;;0.10;;
23262;SDS011;11800;49.830;9.922;2023-03-13T05:56:21;0.15;;;0.15;;
23262;SDS011;11800;49.830;9.922;2023-03-13T05:58:47;0.10;;;0.10;;
23262;SDS011;11800;49.830;9.922;2023-03-13T06:01:13;0.10;;;0.10;;
23262;SDS011;11800;49.830;9.922;2023-03-13T06:03:39;0.10;;;0.10;;
23262;SDS011;11800;49.830;9.922;2023-03-13T06:06:05;0.20;;;0.20;;
23262;SDS011;11800;49.830;9.922;2023-03-13T06:08:31;0.10;;;0.10;;
23262;SDS011;11800;49.830;9.922;2023-03-13T06:10:58;0.10;;;0.10;;
23262;SDS011;11800;49.830;9.922;2023-03-13T06:13:24;0.20;;;0.20;;
23262;SDS011;11800;49.830;9.922;2023-03-13T06:15:54;0.10;;;0.10;;
23262;SDS011;11800;49.830;9.922;2023-03-13T06:18:20;0.10;;;0.10;;
23262;SDS011;11800;49.830;9.922;2023-03-13T06:20:47;0.10;;;0.10;;
23262;SDS011;11800;49.830;9.922;2023-03-13T06:23:13;0.10;;;0.10;;
23262;SDS011;11800;49.830;9.922;2023-03-13T06:25:40;0.10;;;0.10;;
23262;SDS011;11800;49.830;9.922;2023-03-13T06:28:06;0.10;;;0.10;;
23262;SDS011;11800;49.830;9.922;2023-03-13T06:30:32;0.10;;;0.10;;
23262;SDS011;11800;49.830;9.922;2023-03-13T06:32:58;0.10;;;0.10;;
23262;SDS011;11800;49.830;9.922;2023-03-13T06:35:24;0.10;;;0.10;;
23262;SDS011;11800;49.830;9.922;2023-03-13T06:37:50;0.10;;;0.10;;
23262;SDS011;11800;49.830;9.922;2023-03-13T06:40:16;0.10;;;0.10;;
23262;SDS011;11800;49.830;9.922;2023-03-13T06:42:42;0.10;;;0.10;;
23262;SDS011;11800;49.830;9.922;2023-03-13T06:45:08;0.10;;;0.10;;
23262;SDS011;11800;49.830;9.922;2023-03-13T06:47:34;0.10;;;0.10;;
23262;SDS011;11800;49.830;9.922;2023-03-13T06:50:00;0.10;;;0.10;;
23262;SDS011;11800;49.830;9.922;2023-03-13T06:52:26;0.10;;;0.10;;
23262;SDS011;11800;49.830;9.922;2023-03-13T06:54:52;0.10;;;0.10;;
23262;SDS011;11800;49.830;9.922;2023-03-13T06:57:18;0.15;;;0.15;;
23262;SDS011;11800;49.830;9.922;2023-03-13T06:59:44;0.10;;;0.10;;
23262;SDS011;11800;49.830;9.922;2023-03-13T07:02:10;0.10;;;0.10;;
23262;SDS011;11800;49.830;9.922;2023-03-13T07:04:36;0.10;;;0.10;;
23262;SDS011;11800;49.830;9.922;2023-03-13T07:07:03;0.10;;;0.10;;
23262;SDS011;11800;49.830;9.922;2023-03-13T07:09:29;0.10;;;0.10;;
23262;SDS011;11800;49.830;9.922;2023-03-13T07:11:55;0.10;;;0.10;;
23262;SDS011;11800;49.830;9.922;2023-03-13T07:14:22;0.10;;;0.10;;
23262;SDS011;11800;49.830;9.922;2023-03-13T07:16:48;0.10;;;0.10;;
23262;SDS011;11800;49.830;9.922;2023-03-13T07:19:14;0.10;;;0.10;;
23262;SDS011;11800;49.830;9.922;2023-03-13T07:21:41;0.20;;;0.20;;
23262;SDS011;11800;49.830;9.922;2023-03-13T07:24:08;0.10;;;0.10;;
23262;SDS011;11800;49.830;9.922;2023-03-13T07:26:34;0.10;;;0.10;;
23262;SDS011;11800;49.830;9.922;2023-03-13T07:29:00;0.10;;;0.10;;
23262;SDS011;11800;49.830;9.922;2023-03-13T07:31:26;0.13;;;0.13;;
23262;SDS011;11800;49.830;9.922;2023-03-13T07:33:54;0.10;;;0.10;;
23262;SDS011;11800;49.830;9.922;2023-03-13T07:36:23;0.10;;;0.10;;
23262;SDS011;11800;49.830;9.922;2023-03-13T07:38:49;0.13;;;0.13;;
23262;SDS011;11800;49.830;9.922;2023-03-13T07:41:15;0.10;;;0.10;;
23262;SDS011;11800;49.830;9.922;2023-03-13T07:43:42;0.10;;;0.10;;
23262;SDS011;11800;49.830;9.922;2023-03-13T07:46:09;0.10;;;0.10;;
23262;SDS011;11800;49.830;9.922;2023-03-13T07:48:36;0.10;;;0.10;;
23262;SDS011;11800;49.830;9.922;2023-03-13T07:51:04;0.10;;;0.10;;
23262;SDS011;11800;49.830;9.922;2023-03-13T07:53:31;0.10;;;0.10;;
23262;SDS011;11800;49.830;9.922;2023-03-13T07:55:58;0.10;;;0.10;;
23262;SDS011;11800;49.830;9.922;2023-03-13T07:58:25;0.20;;;0.20;;
23262;SDS011;11800;49.830;9.922;2023-03-13T08:00:51;0.20;;;0.20;;
23262;SDS011;11800;49.830;9.922;2023-03-13T08:03:18;0.10;;;0.10;;
23262;SDS011;11800;49.830;9.922;2023-03-13T08:05:44;0.10;;;0.10;;
23262;SDS011;11800;49.830;9.922;2023-03-13T08:08:10;0.10;;;0.10;;
23262;SDS011;11800;49.830;9.922;2023-03-13T08:10:36;0.10;;;0.10;;
23262;SDS011;11800;49.830;9.922;2023-03-13T08:13:02;0.10;;;0.10;;
23262;SDS011;11800;49.830;9.922;2023-03-13T08:15:28;0.20;;;0.20;;
23262;SDS011;11800;49.830;9.922;2023-03-13T08:17:54;0.10;;;0.10;;
23262;SDS011;11800;49.830;9.922;2023-03-13T08:20:21;0.10;;;0.10;;
23262;SDS011;11800;49.830;9.922;2023-03-13T08:22:47;0.10;;;0.10;;
23262;SDS011;11800;49.830;9.922;2023-03-13T08:25:16;0.10;;;0.10;;
23262;SDS011;11800;49.830;9.922;2023-03-13T08:27:42;0.10;;;0.10;;
23262;SDS011;11800;49.830;9.922;2023-03-13T08:30:08;0.10;;;0.10;;
23262;SDS011;11800;49.830;9.922;2023-03-13T08:32:34;0.10;;;0.10;;
23262;SDS011;11800;49.830;9.922;2023-03-13T08:35:01;0.10;;;0.10;;
23262;SDS011;11800;49.830;9.922;2023-03-13T08:37:27;0.15;;;0.15;;
23262;SDS011;11800;49.830;9.922;2023-03-13T08:39:53;0.10;;;0.10;;
23262;SDS011;11800;49.830;9.922;2023-03-13T08:42:20;0.10;;;0.10;;
23262;SDS011;11800;49.830;9.922;2023-03-13T08:44:46;0.20;;;0.20;;
23262;SDS011;11800;49.830;9.922;2023-03-13T08:47:12;0.10;;;0.10;;
23262;SDS011;11800;49.830;9.922;2023-03-13T08:49:38;0.10;;;0.10;;
23262;SDS011;11800;49.830;9.922;2023-03-13T08:52:05;0.10;;;0.10;;
23262;SDS011;11800;49.830;9.922;2023-03-13T08:54:31;0.10;;;0.10;;
23262;SDS011;11800;49.830;9.922;2023-03-13T08:56:57;0.10;;;0.10;;
23262;SDS011;11800;49.830;9.922;2023-03-13T08:59:24;0.10;;;0.10;;
23262;SDS011;11800;49.830;9.922;2023-03-13T09:01:50;0.10;;;0.10;;
23262;SDS011;11800;49.830;9.922;2023-03-13T09:04:16;0.10;;;0.10;;
23262;SDS011;11800;49.830;9.922;2023-03-13T09:06:42;0.10;;;0.10;;
23262;SDS011;11800;49.830;9.922;2023-03-13T09:09:09;0.10;;;0.10;;
23262;SDS011;11800;49.830;9.922;2023-03-13T09:11:35;0.10;;;0.10;;
23262;SDS011;11800;49.830;9.922;2023-03-13T09:14:02;0.10;;;0.10;;
23262;SDS011;11800;49.830;9.922;2023-03-13T09:16:29;0.10;;;0.10;;
23262;SDS011;11800;49.830;9.922;2023-03-13T09:18:55;0.10;;;0.10;;
23262;SDS011;11800;49.830;9.922;2023-03-13T09:21:32;0.10;;;0.10;;
23262;SDS011;11800;49.830;9.922;2023-03-13T09:23:58;0.10;;;0.10;;
23262;SDS011;11800;49.830;9.922;2023-03-13T09:26:24;0.10;;;0.10;;
23262;SDS011;11800;49.830;9.922;2023-03-13T09:28:51;0.10;;;0.10;;
23262;SDS011;11800;49.830;9.922;2023-03-13T09:31:22;0.10;;;0.10;;
23262;SDS011;11800;49.830;9.922;2023-03-13T09:33:48;0.10;;;0.10;;
23262;SDS011;11800;49.830;9.922;2023-03-13T09:36:15;0.10;;;0.10;;
23262;SDS011;11800;49.830;9.922;2023-03-13T09:38:41;0.20;;;0.20;;
23262;SDS011;11800;49.830;9.922;2023-03-13T09:43:36;0.10;;;0.10;;
23262;SDS011;11800;49.830;9.922;2023-03-13T09:46:07;0.10;;;0.10;;
23262;SDS011;11800;49.830;9.922;2023-03-13T09:48:37;0.10;;;0.10;;
23262;SDS011;11800;49.830;9.922;2023-03-13T09:51:06;0.13;;;0.13;;
23262;SDS011;11800;49.830;9.922;2023-03-13T09:53:35;0.10;;;0.10;;
23262;SDS011;11800;49.830;9.922;2023-03-13T09:56:02;0.10;;;0.10;;
23262;SDS011;11800;49.830;9.922;2023-03-13T09:58:29;0.10;;;0.10;;
23262;SDS011;11800;49.830;9.922;2023-03-13T10:00:57;0.10;;;0.10;;
23262;SDS011;11800;49.830;9.922;2023-03-13T10:03:37;0.10;;;0.10;;
23262;SDS011;11800;49.830;9.922;2023-03-13T10:06:05;0.10;;;0.10;;
23262;SDS011;11800;49.830;9.922;2023-03-13T10:08:36;0.10;;;0.10;;
23262;SDS011;11800;49.830;9.922;2023-03-13T10:11:05;0.20;;;0.20;;
23262;SDS011;11800;49.830;9.922;2023-03-13T10:15:59;0.10;;;0.10;;
23262;SDS011;11800;49.830;9.922;2023-03-13T10:18:26;0.20;;;0.20;;
23262;SDS011;11800;49.830;9.922;2023-03-13T10:20:53;0.10;;;0.10;;
23262;SDS011;11800;49.830;9.922;2023-03-13T10:25:51;0.10;;;0.10;;
23262;SDS011;11800;49.830;9.922;2023-03-13T10:28:17;0.10;;;0.10;;
23262;SDS011;11800;49.830;9.922;2023-03-13T10:30:48;0.10;;;0.10;;
23262;SDS011;11800;49.830;9.922;2023-03-13T10:35:45;0.10;;;0.10;;
23262;SDS011;11800;49.830;9.922;2023-03-13T10:40:37;0.10;;;0.10;;
23262;SDS011;11800;49.830;9.922;2023-03-13T10:43:04;0.15;;;0.15;;
23262;SDS011;11800;49.830;9.922;2023-03-13T10:45:32;0.20;;;0.20;;
23262;SDS011;11800;49.830;9.922;2023-03-13T10:47:59;0.10;;;0.10;;
23262;SDS011;11800;49.830;9.922;2023-03-13T10:50:26;0.10;;;0.10;;
23262;SDS011;11800;49.830;9.922;2023-03-13T10:52:53;0.20;;;0.20;;
23262;SDS011;11800;49.830;9.922;2023-03-13T10:55:20;0.10;;;0.10;;
23262;SDS011;11800;49.830;9.922;2023-03-13T10:58:04;0.10;;;0.10;;
23262;SDS011;11800;49.830;9.922;2023-03-13T11:00:35;0.10;;;0.10;;
23262;SDS011;11800;49.830;9.922;2023-03-13T11:03:05;0.10;;;0.10;;
23262;SDS011;11800;49.830;9.922;2023-03-13T11:07:58;0.10;;;0.10;;
23262;SDS011;11800;49.830;9.922;2023-03-13T11:10:35;0.20;;;0.20;;
23262;SDS011;11800;49.830;9.922;2023-03-13T11:13:01;0.20;;;0.20;;
23262;SDS011;11800;49.830;9.922;2023-03-13T11:15:44;0.10;;;0.10;;
23262;SDS011;11800;49.830;9.922;2023-03-13T11:20:40;0.10;;;0.10;;
23262;SDS011;11800;49.830;9.922;2023-03-13T11:28:19;0.10;;;0.10;;
23262;SDS011;11800;49.830;9.922;2023-03-13T11:30:49;0.10;;;0.10;;
23262;SDS011;11800;49.830;9.922;2023-03-13T11:36:08;0.10;;;0.10;;
23262;SDS011;11800;49.830;9.922;2023-03-13T11:38:38;0.10;;;0.10;;
23262;SDS011;11800;49.830;9.922;2023-03-13T11:43:34;0.10;;;0.10;;
23262;SDS011;11800;49.830;9.922;2023-03-13T11:52:23;0.10;;;0.10;;
23262;SDS011;11800;49.830;9.922;2023-03-13T12:02:26;0.10;;;0.10;;
23262;SDS011;11800;49.830;9.922;2023-03-13T12:04:56;0.10;;;0.10;;
23262;SDS011;11800;49.830;9.922;2023-03-13T12:07:29;0.10;;;0.10;;
23262;SDS011;11800;49.830;9.922;2023-03-13T12:10:18;0.20;;;0.20;;
23262;SDS011;11800;49.830;9.922;2023-03-13T12:12:48;0.10;;;0.10;;
23262;SDS011;11800;49.830;9.922;2023-03-13T12:15:17;0.10;;;0.10;;
23262;SDS011;11800;49.830;9.922;2023-03-13T12:17:57;0.10;;;0.10;;
23262;SDS011;11800;49.830;9.922;2023-03-13T12:20:26;0.17;;;0.17;;
23262;SDS011;11800;49.830;9.922;2023-03-13T12:23:06;0.10;;;0.10;;
23262;SDS011;11800;49.830;9.922;2023-03-13T12:25:37;0.10;;;0.10;;
23262;SDS011;11800;49.830;9.922;2023-03-13T12:28:18;0.20;;;0.20;;
23262;SDS011;11800;49.830;9.922;2023-03-13T12:36:08;0.10;;;0.10;;
23262;SDS011;11800;49.830;9.922;2023-03-13T12:38:40;0.20;;;0.20;;
23262;SDS011;11800;49.830;9.922;2023-03-13T12:41:11;0.20;;;0.20;;
23262;SDS011;11800;49.830;9.922;2023-03-13T12:43:39;0.20;;;0.20;;
23262;SDS011;11800;49.830;9.922;2023-03-13T12:56:38;0.20;;;0.20;;
23262;SDS011;11800;49.830;9.922;2023-03-13T12:59:07;0.30;;;0.30;;
23262;SDS011;11800;49.830;9.922;2023-03-13T13:01:38;0.20;;;0.20;;
23262;SDS011;11800;49.830;9.922;2023-03-13T13:04:11;0.20;;;0.20;;
23262;SDS011;11800;49.830;9.922;2023-03-13T13:06:56;0.20;;;0.20;;
23262;SDS011;11800;49.830;9.922;2023-03-13T13:09:25;0.20;;;0.20;;
23262;SDS011;11800;49.830;9.922;2023-03-13T13:11:52;0.10;;;0.10;;
23262;SDS011;11800;49.830;9.922;2023-03-13T13:16:45;0.20;;;0.20;;
23262;SDS011;11800;49.830;9.922;2023-03-13T13:24:49;0.20;;;0.20;;
23262;SDS011;11800;49.830;9.922;2023-03-13T13:29:54;0.10;;;0.10;;
23262;SDS011;11800;49.830;9.922;2023-03-13T13:37:30;0.20;;;0.20;;
23262;SDS011;11800;49.830;9.922;2023-03-13T13:43:23;0.10;;;0.10;;
23262;SDS011;11800;49.830;9.922;2023-03-13T13:45:36;0.10;;;0.10;;
23262;SDS011;11800;49.830;9.922;2023-03-13T13:53:33;0.10;;;0.10;;
23262;SDS011;11800;49.830;9.922;2023-03-13T13:56:26;0.10;;;0.10;;
23262;SDS011;11800;49.830;9.922;2023-03-13T13:59:01;0.10;;;0.10;;
23262;SDS011;11800;49.830;9.922;2023-03-13T14:01:28;0.20;;;0.20;;
23262;SDS011;11800;49.830;9.922;2023-03-13T14:03:57;0.20;;;0.20;;
23262;SDS011;11800;49.830;9.922;2023-03-13T14:06:26;0.10;;;0.10;;
23262;SDS011;11800;49.830;9.922;2023-03-13T14:08:55;0.10;;;0.10;;
23262;SDS011;11800;49.830;9.922;2023-03-13T14:11:29;0.10;;;0.10;;
23262;SDS011;11800;49.830;9.922;2023-03-13T14:16:38;0.10;;;0.10;;
23262;SDS011;11800;49.830;9.922;2023-03-13T14:19:05;0.10;;;0.10;;
23262;SDS011;11800;49.830;9.922;2023-03-13T14:21:44;0.13;;;0.13;;
23262;SDS011;11800;49.830;9.922;2023-03-13T14:24:13;0.10;;;0.10;;
23262;SDS011;11800;49.830;9.922;2023-03-13T14:26:41;0.30;;;0.30;;
23262;SDS011;11800;49.830;9.922;2023-03-13T14:29:14;0.20;;;0.20;;
23262;SDS011;11800;49.830;9.922;2023-03-13T14:31:40;0.20;;;0.20;;
23262;SDS011;11800;49.830;9.922;2023-03-13T14:34:07;0.20;;;0.20;;
23262;SDS011;11800;49.830;9.922;2023-03-13T14:39:15;0.28;;;0.28;;
23262;SDS011;11800;49.830;9.922;2023-03-13T14:41:43;0.20;;;0.20;;
23262;SDS011;11800;49.830;9.922;2023-03-13T14:44:21;0.40;;;0.40;;
23262;SDS011;11800;49.830;9.922;2023-03-13T14:46:49;0.40;;;0.40;;
23262;SDS011;11800;49.830;9.922;2023-03-13T14:49:20;0.40;;;0.40;;
23262;SDS011;11800;49.830;9.922;2023-03-13T14:51:56;0.40;;;0.40;;
23262;SDS011;11800;49.830;9.922;2023-03-13T14:54:24;0.40;;;0.40;;
23262;SDS011;11800;49.830;9.922;2023-03-13T14:57:00;0.50;;;0.50;;
23262;SDS011;11800;49.830;9.922;2023-03-13T14:59:27;0.35;;;0.35;;
23262;SDS011;11800;49.830;9.922;2023-03-13T15:02:00;0.40;;;0.40;;
23262;SDS011;11800;49.830;9.922;2023-03-13T15:07:11;0.50;;;0.50;;
23262;SDS011;11800;49.830;9.922;2023-03-13T15:09:40;0.60;;;0.60;;
23262;SDS011;11800;49.830;9.922;2023-03-13T15:12:13;0.50;;;0.50;;
23262;SDS011;11800;49.830;9.922;2023-03-13T15:14:41;0.52;;;0.52;;
23262;SDS011;11800;49.830;9.922;2023-03-13T15:17:15;0.10;;;0.10;;
23262;SDS011;11800;49.830;9.922;2023-03-13T15:19:41;0.10;;;0.10;;
23262;SDS011;11800;49.830;9.922;2023-03-13T15:22:11;0.13;;;0.13;;
23262;SDS011;11800;49.830;9.922;2023-03-13T15:24:38;0.10;;;0.10;;
23262;SDS011;11800;49.830;9.922;2023-03-13T15:27:15;0.10;;;0.10;;
23262;SDS011;11800;49.830;9.922;2023-03-13T15:29:41;0.30;;;0.30;;
23262;SDS011;11800;49.830;9.922;2023-03-13T15:32:40;0.10;;;0.10;;
23262;SDS011;11800;49.830;9.922;2023-03-13T15:34:59;0.40;;;0.40;;
23262;SDS011;11800;49.830;9.922;2023-03-13T15:37:29;0.10;;;0.10;;
23262;SDS011;11800;49.830;9.922;2023-03-13T15:39:55;0.40;;;0.40;;
23262;SDS011;11800;49.830;9.922;2023-03-13T15:42:22;0.50;;;0.50;;
23262;SDS011;11800;49.830;9.922;2023-03-13T15:44:48;0.40;;;0.40;;
23262;SDS011;11800;49.830;9.922;2023-03-13T15:47:18;0.30;;;0.30;;
23262;SDS011;11800;49.830;9.922;2023-03-13T15:49:44;0.20;;;0.20;;
23262;SDS011;11800;49.830;9.922;2023-03-13T15:52:14;0.20;;;0.20;;
23262;SDS011;11800;49.830;9.922;2023-03-13T15:54:42;0.10;;;0.10;;
23262;SDS011;11800;49.830;9.922;2023-03-13T15:57:10;0.10;;;0.10;;
23262;SDS011;11800;49.830;9.922;2023-03-13T15:59:37;0.10;;;0.10;;
23262;SDS011;11800;49.830;9.922;2023-03-13T16:02:05;0.10;;;0.10;;
23262;SDS011;11800;49.830;9.922;2023-03-13T16:04:35;0.10;;;0.10;;
23262;SDS011;11800;49.830;9.922;2023-03-13T16:07:07;0.10;;;0.10;;
23262;SDS011;11800;49.830;9.922;2023-03-13T16:09:33;0.10;;;0.10;;
23262;SDS011;11800;49.830;9.922;2023-03-13T16:11:59;0.10;;;0.10;;
23262;SDS011;11800;49.830;9.922;2023-03-13T16:14:25;0.10;;;0.10;;
23262;SDS011;11800;49.830;9.922;2023-03-13T16:16:51;0.03;;;0.03;;
23262;SDS011;11800;49.830;9.922;2023-03-13T16:19:17;0.10;;;0.10;;
23262;SDS011;11800;49.830;9.922;2023-03-13T16:21:44;0.08;;;0.08;;
23262;SDS011;11800;49.830;9.922;2023-03-13T16:24:12;0.10;;;0.10;;
23262;SDS011;11800;49.830;9.922;2023-03-13T16:26:38;0.05;;;0.05;;
23262;SDS011;11800;49.830;9.922;2023-03-13T16:29:05;0.10;;;0.10;;